Time;durP1;ratioP1;P1;durP2;ratioP2;P2;SDS_P1;SDS_P2;PMS_P1;PMS_P2;Temp;Humidity;BMP_temperature;BMP_pressure;BME280_temperature;BME280_humidity;BME280_pressure;Samples;Min_cycle;Max_cycle;Signal;HPM_P1;HPM_P2
2022/03/12 00:00:31;;;;;;;20.33;11.80;;;1.20;99.90;;;;;;4977564;28;20263;-81
2022/03/12 00:02:57;;;;;;;21.27;12.60;;;0.50;99.90;;;;;;4978009;28;20168;-81
2022/03/12 00:05:25;;;;;;;23.23;12.60;;;0.10;99.90;;;;;;4978579;28;20354;-82
2022/03/12 00:07:51;;;;;;;24.70;12.90;;;0.00;99.90;;;;;;4978402;28;20505;-82
2022/03/12 00:10:21;;;;;;;28.67;12.77;;;0.00;99.90;;;;;;4980567;28;20440;-81
2022/03/12 00:12:48;;;;;;;27.73;13.20;;;-0.10;99.90;;;;;;4978340;28;20204;-81
2022/03/12 00:15:14;;;;;;;24.33;12.87;;;-0.10;99.90;;;;;;4978586;28;20454;-82
2022/03/12 00:17:45;;;;;;;25.33;12.57;;;-0.10;99.90;;;;;;4979477;28;20456;-82
2022/03/12 00:20:13;;;;;;;25.40;13.90;;;-0.20;99.90;;;;;;4980531;28;20422;-81
2022/03/12 00:22:48;;;;;;;23.77;13.43;;;-0.10;99.90;;;;;;4980064;28;20486;-81
2022/03/12 00:25:25;;;;;;;18.00;11.93;;;-0.20;99.90;;;;;;4982619;28;20545;-82
2022/03/12 00:27:51;;;;;;;21.77;12.57;;;-0.20;99.90;;;;;;4982652;28;20423;-82
2022/03/12 00:30:19;;;;;;;21.97;13.10;;;-0.20;99.90;;;;;;4983956;28;20439;-82
2022/03/12 00:32:48;;;;;;;23.53;13.70;;;-0.20;99.90;;;;;;4983459;28;20635;-81
2022/03/12 00:35:16;;;;;;;21.67;12.90;;;0.60;99.90;;;;;;4981867;28;20447;-82
2022/03/12 00:37:42;;;;;;;22.67;13.13;;;0.60;99.90;;;;;;4983104;28;20455;-81
2022/03/12 00:40:08;;;;;;;21.73;12.80;;;-0.20;99.90;;;;;;4983240;28;20416;-82
2022/03/12 00:42:34;;;;;;;23.30;12.93;;;-0.10;99.90;;;;;;4982133;28;20432;-82
2022/03/12 00:45:00;;;;;;;18.50;11.57;;;0.30;99.90;;;;;;4985468;28;20529;-82
2022/03/12 00:47:26;;;;;;;21.50;12.90;;;-0.20;99.90;;;;;;4983379;28;20635;-82
2022/03/12 00:49:53;;;;;;;23.40;11.73;;;1.10;99.90;;;;;;4982069;28;20474;-81
2022/03/12 00:52:19;;;;;;;21.97;13.47;;;-0.20;99.90;;;;;;4982195;28;20415;-81
2022/03/12 00:54:45;;;;;;;20.00;12.43;;;-0.40;99.90;;;;;;4983308;28;20463;-82
2022/03/12 00:57:12;;;;;;;19.30;11.00;;;-0.50;99.90;;;;;;4982446;28;20420;-82
2022/03/12 00:59:42;;;;;;;24.67;13.50;;;-0.50;99.90;;;;;;4983874;28;20169;-82
2022/03/12 01:02:12;;;;;;;27.07;12.70;;;-0.50;99.90;;;;;;4984412;28;20813;-81
2022/03/12 01:04:38;;;;;;;27.00;14.73;;;-0.50;99.90;;;;;;4983448;28;20829;-82
2022/03/12 01:07:03;;;;;;;27.00;13.87;;;0.40;99.90;;;;;;4983743;28;20765;-82
2022/03/12 01:09:29;;;;;;;23.57;14.13;;;-0.40;99.90;;;;;;4982176;28;20423;-82
2022/03/12 01:11:55;;;;;;;24.57;14.07;;;-0.10;99.90;;;;;;4981888;28;20187;-81
2022/03/12 01:14:21;;;;;;;23.40;12.97;;;-0.40;99.90;;;;;;4981469;28;20443;-82
2022/03/12 01:16:47;;;;;;;22.63;12.43;;;-0.40;99.90;;;;;;4981481;28;20180;-82
2022/03/12 01:19:15;;;;;;;23.57;12.00;;;0.60;99.90;;;;;;4982422;28;20275;-81
2022/03/12 01:21:41;;;;;;;19.53;11.87;;;-0.40;99.90;;;;;;4981665;28;20180;-81
2022/03/12 01:24:07;;;;;;;20.37;12.57;;;-0.30;99.90;;;;;;4981729;28;20459;-81
2022/03/12 01:26:34;;;;;;;20.17;11.87;;;-0.40;99.90;;;;;;4982824;28;20404;-82
2022/03/12 01:29:00;;;;;;;23.43;12.47;;;1.20;99.90;;;;;;4982760;28;20246;-81
2022/03/12 01:31:26;;;;;;;18.83;11.17;;;0.90;99.90;;;;;;4981453;28;20917;-83
2022/03/12 01:33:51;;;;;;;23.17;11.20;;;-0.40;99.90;;;;;;4981221;28;20180;-81
2022/03/12 01:36:17;;;;;;;20.60;11.90;;;-0.40;99.90;;;;;;4981338;28;20193;-81
2022/03/12 01:38:48;;;;;;;18.67;10.93;;;-0.50;99.90;;;;;;4982781;28;20185;-81
2022/03/12 01:41:15;;;;;;;22.87;11.13;;;-0.10;99.90;;;;;;4982882;28;20176;-82
2022/03/12 01:43:43;;;;;;;21.70;12.57;;;-0.70;99.90;;;;;;4982240;28;20490;-81
2022/03/12 01:46:10;;;;;;;20.53;11.80;;;-0.60;99.90;;;;;;4982246;28;20432;-81
2022/03/12 01:48:44;;;;;;;25.60;13.40;;;0.90;99.90;;;;;;4980873;28;20821;-81
2022/03/12 01:51:10;;;;;;;27.00;13.17;;;-0.60;99.90;;;;;;4981042;28;20448;-81
2022/03/12 01:53:35;;;;;;;21.43;11.87;;;0.70;99.90;;;;;;4981167;28;20419;-81
2022/03/12 01:56:02;;;;;;;20.37;11.80;;;1.10;99.90;;;;;;4980261;28;20296;-82
2022/03/12 01:58:28;;;;;;;19.67;11.57;;;-0.70;99.90;;;;;;4980981;28;20176;-81
2022/03/12 02:00:57;;;;;;;22.53;13.40;;;-0.60;99.90;;;;;;4982077;28;20486;-81
2022/03/12 02:03:29;;;;;;;23.77;11.90;;;-0.50;99.90;;;;;;4981172;28;20180;-81
2022/03/12 02:05:59;;;;;;;19.33;11.17;;;-0.60;99.90;;;;;;4982798;28;20960;-81
2022/03/12 02:08:25;;;;;;;17.80;10.73;;;-0.60;99.90;;;;;;4982187;28;20415;-81
2022/03/12 02:10:56;;;;;;;19.97;11.57;;;-0.60;99.90;;;;;;4981605;28;20450;-82
2022/03/12 02:13:21;;;;;;;15.30;10.57;;;-0.60;99.90;;;;;;4981531;28;20438;-81
2022/03/12 02:15:47;;;;;;;19.67;10.67;;;-0.60;99.90;;;;;;4982547;28;20934;-81
2022/03/12 02:18:14;;;;;;;16.83;10.37;;;-0.60;99.90;;;;;;4981024;28;20275;-81
2022/03/12 02:20:41;;;;;;;16.13;9.70;;;0.40;99.90;;;;;;4981755;28;20169;-82
2022/03/12 02:23:10;;;;;;;14.30;9.90;;;-0.70;99.90;;;;;;4980899;28;20424;-81
2022/03/12 02:25:36;;;;;;;18.37;10.33;;;-0.80;99.90;;;;;;4980841;28;20468;-81
2022/03/12 02:28:15;;;;;;;17.83;9.57;;;-0.90;99.90;;;;;;4981845;28;20463;-81
2022/03/12 02:33:33;;;;;;;17.97;10.63;;;-1.00;99.90;;;;;;4982695;28;20420;-81
2022/03/12 02:35:59;;;;;;;16.93;10.53;;;-1.00;99.90;;;;;;4981452;28;20567;-81
2022/03/12 02:38:28;;;;;;;16.20;10.03;;;0.10;99.90;;;;;;4981397;28;20201;-81
2022/03/12 02:40:54;;;;;;;15.70;10.30;;;-0.80;99.90;;;;;;4980562;28;20427;-81
2022/03/12 02:43:29;;;;;;;16.93;9.73;;;-0.90;99.90;;;;;;4979573;28;20936;-81
2022/03/12 02:46:01;;;;;;;19.03;9.87;;;-0.80;99.90;;;;;;4979442;28;20203;-80
2022/03/12 02:48:26;;;;;;;17.13;10.27;;;-0.80;99.90;;;;;;4978919;28;20416;-80
2022/03/12 02:50:53;;;;;;;16.20;10.13;;;0.90;99.90;;;;;;4981743;28;20427;-80
2022/03/12 02:53:19;;;;;;;16.23;10.23;;;-0.60;99.90;;;;;;4980533;28;20172;-80
2022/03/12 02:55:45;;;;;;;19.70;10.47;;;-0.60;99.90;;;;;;4989563;28;20466;-81
2022/03/12 02:58:14;;;;;;;19.77;10.80;;;-0.50;99.90;;;;;;4992764;28;20183;-80
2022/03/12 03:00:40;;;;;;;17.90;10.07;;;-0.40;99.90;;;;;;4985389;28;20456;-81
2022/03/12 03:03:06;;;;;;;17.93;9.93;;;-0.30;99.90;;;;;;4980966;28;20467;-81
2022/03/12 03:05:47;;;;;;;17.60;9.90;;;-0.30;99.90;;;;;;4979575;28;20223;-80
2022/03/12 03:08:18;;;;;;;18.57;10.03;;;-0.30;99.90;;;;;;4979707;28;20482;-80
2022/03/12 03:10:45;;;;;;;18.17;8.70;;;-0.40;99.90;;;;;;4980001;28;20418;-81
2022/03/12 03:13:17;;;;;;;15.87;9.67;;;-0.30;99.90;;;;;;4980718;28;20469;-80
2022/03/12 03:16:06;;;;;;;14.77;10.17;;;-0.30;99.90;;;;;;4980605;28;20435;-80
2022/03/12 03:18:34;;;;;;;18.90;9.47;;;-0.30;99.90;;;;;;4978546;28;20415;-80
2022/03/12 03:21:01;;;;;;;13.93;8.20;;;-0.30;99.90;;;;;;4980087;28;20424;-80
2022/03/12 03:23:29;;;;;;;14.13;8.77;;;-0.30;99.90;;;;;;4979561;28;20427;-81
2022/03/12 03:25:56;;;;;;;16.43;10.07;;;-0.30;99.90;;;;;;4981861;28;20527;-81
2022/03/12 03:28:22;;;;;;;13.97;9.23;;;-0.30;99.90;;;;;;4980941;28;20434;-80
2022/03/12 03:30:47;;;;;;;15.63;9.50;;;-0.20;99.90;;;;;;4979394;28;20921;-81
2022/03/12 03:33:16;;;;;;;18.50;10.47;;;-0.20;99.90;;;;;;4979382;28;20207;-80
2022/03/12 03:35:43;;;;;;;17.50;10.03;;;-0.10;99.90;;;;;;4979587;28;20227;-81
2022/03/12 03:38:11;;;;;;;15.50;9.23;;;-0.20;99.90;;;;;;4980699;28;20882;-81
2022/03/12 03:40:37;;;;;;;15.40;9.50;;;0.50;99.90;;;;;;4979611;28;20507;-81
2022/03/12 03:43:06;;;;;;;15.13;9.60;;;-0.10;99.90;;;;;;4980396;28;20502;-81
2022/03/12 03:45:31;;;;;;;19.57;8.87;;;0.90;99.90;;;;;;4979162;28;21075;-81
2022/03/12 03:47:58;;;;;;;15.93;9.30;;;0.00;99.90;;;;;;4980682;28;20495;-81
2022/03/12 03:50:25;;;;;;;15.67;8.63;;;0.00;99.90;;;;;;4979318;28;20207;-81
2022/03/12 03:52:58;;;;;;;15.27;8.87;;;0.00;99.90;;;;;;4979085;28;20416;-80
2022/03/12 03:55:27;;;;;;;16.27;9.43;;;1.20;99.90;;;;;;4979040;28;20463;-81
2022/03/12 03:57:54;;;;;;;18.70;9.47;;;1.30;99.90;;;;;;4979813;28;20439;-80
2022/03/12 04:00:23;;;;;;;16.33;9.47;;;1.00;99.90;;;;;;4981890;28;20422;-81
2022/03/12 04:03:02;;;;;;;19.67;9.57;;;0.10;99.90;;;;;;4984108;28;20498;-81
2022/03/12 04:05:30;;;;;;;17.83;9.23;;;0.00;99.90;;;;;;4983913;28;20467;-81
2022/03/12 04:07:56;;;;;;;15.30;9.20;;;0.10;99.90;;;;;;4984100;28;20510;-81
2022/03/12 04:10:21;;;;;;;14.53;9.90;;;0.40;99.90;;;;;;4982832;28;20920;-80
2022/03/12 04:12:47;;;;;;;15.57;8.77;;;0.10;99.90;;;;;;4982715;28;20174;-80
2022/03/12 04:15:13;;;;;;;14.77;9.17;;;0.10;99.90;;;;;;4983846;28;20275;-80
2022/03/12 04:17:42;;;;;;;14.80;9.00;;;0.10;99.90;;;;;;4988897;28;20223;-80
2022/03/12 04:20:09;;;;;;;15.20;8.80;;;0.10;99.90;;;;;;4982035;28;20180;-80
2022/03/12 04:22:38;;;;;;;16.27;9.40;;;0.20;99.90;;;;;;4981621;28;20416;-80
2022/03/12 04:25:04;;;;;;;15.37;8.90;;;0.20;99.90;;;;;;4983052;28;20467;-80
2022/03/12 04:27:30;;;;;;;18.10;8.53;;;0.20;99.90;;;;;;4982518;28;21057;-80
2022/03/12 04:29:56;;;;;;;15.47;8.70;;;0.30;99.90;;;;;;4982607;28;20464;-80
2022/03/12 04:32:22;;;;;;;17.00;9.20;;;0.40;99.90;;;;;;4982048;28;20176;-80
2022/03/12 04:34:47;;;;;;;14.30;8.93;;;0.30;99.90;;;;;;4981907;28;20255;-81
2022/03/12 04:37:13;;;;;;;13.83;8.57;;;0.40;99.90;;;;;;4984117;28;20184;-81
2022/03/12 04:39:40;;;;;;;13.37;8.17;;;0.40;99.90;;;;;;4985150;28;20172;-81
2022/03/12 04:42:07;;;;;;;16.87;10.23;;;0.40;99.90;;;;;;4983252;28;20176;-80
2022/03/12 04:44:32;;;;;;;15.77;9.13;;;0.40;99.90;;;;;;4981715;28;20502;-80
2022/03/12 04:46:58;;;;;;;14.23;8.93;;;1.90;99.90;;;;;;4981029;28;20415;-81
2022/03/12 04:49:24;;;;;;;17.97;9.47;;;0.50;99.90;;;;;;4981738;28;20173;-81
2022/03/12 04:51:50;;;;;;;14.13;8.47;;;0.50;99.90;;;;;;4981982;28;20255;-81
2022/03/12 04:54:16;;;;;;;15.03;8.70;;;0.50;99.90;;;;;;4981279;28;20196;-81
2022/03/12 04:56:42;;;;;;;16.73;10.03;;;0.70;99.90;;;;;;4980568;28;20267;-81
2022/03/12 04:59:08;;;;;;;16.47;9.43;;;0.40;99.90;;;;;;4980802;28;20448;-81
2022/03/12 05:01:33;;;;;;;16.20;9.70;;;0.50;99.90;;;;;;4981486;28;20180;-81
2022/03/12 05:03:59;;;;;;;17.77;9.77;;;0.60;99.90;;;;;;4981220;28;20203;-81
2022/03/12 05:06:25;;;;;;;16.03;8.97;;;0.40;99.90;;;;;;4981618;28;20185;-81
2022/03/12 05:08:51;;;;;;;16.23;9.70;;;0.90;99.90;;;;;;4980417;28;20207;-81
2022/03/12 05:11:16;;;;;;;15.67;8.87;;;0.60;99.90;;;;;;4981092;28;20404;-80
2022/03/12 05:13:42;;;;;;;16.97;9.47;;;1.50;99.90;;;;;;4981105;28;20181;-80
2022/03/12 05:16:08;;;;;;;18.70;10.00;;;0.10;99.90;;;;;;4980955;28;20207;-79
2022/03/12 05:18:36;;;;;;;19.13;10.00;;;0.00;99.90;;;;;;4982069;28;20180;-80
2022/03/12 05:21:03;;;;;;;14.53;9.30;;;0.00;99.90;;;;;;4980427;28;20235;-80
2022/03/12 05:23:29;;;;;;;14.93;8.87;;;0.00;99.90;;;;;;4979438;28;20416;-81
2022/03/12 05:25:55;;;;;;;15.37;9.10;;;0.50;99.90;;;;;;4979974;28;20440;-81
2022/03/12 05:28:25;;;;;;;13.83;7.80;;;0.10;99.90;;;;;;4979350;28;20211;-80
2022/03/12 05:30:59;;;;;;;16.40;9.23;;;0.60;99.90;;;;;;4978186;28;20177;-80
2022/03/12 05:33:26;;;;;;;14.50;8.83;;;-0.20;99.90;;;;;;4977901;28;20408;-80
2022/03/12 05:35:54;;;;;;;17.13;9.43;;;0.10;99.90;;;;;;4978541;28;20495;-80
2022/03/12 05:38:21;;;;;;;19.00;10.00;;;1.30;99.90;;;;;;4978451;28;20463;-81
2022/03/12 05:40:48;;;;;;;13.53;7.57;;;-0.20;99.90;;;;;;4979427;28;20411;-80
2022/03/12 05:43:17;;;;;;;19.40;9.40;;;0.80;99.90;;;;;;4980861;28;20416;-81
2022/03/12 05:45:49;;;;;;;15.23;9.53;;;0.80;99.90;;;;;;4980619;28;20477;-81
2022/03/12 05:48:16;;;;;;;13.60;8.23;;;-0.20;99.90;;;;;;4979899;28;20412;-81
2022/03/12 05:50:46;;;;;;;15.80;9.03;;;0.30;99.90;;;;;;4982889;28;20431;-81
2022/03/12 05:53:13;;;;;;;14.63;9.40;;;0.20;99.90;;;;;;4980665;28;20495;-80
2022/03/12 05:55:40;;;;;;;15.83;8.70;;;-0.10;99.90;;;;;;4979043;28;20517;-80
2022/03/12 05:58:07;;;;;;;18.20;9.07;;;0.00;99.90;;;;;;4980232;28;20447;-81
2022/03/12 06:00:33;;;;;;;14.30;8.87;;;0.00;99.90;;;;;;4980893;28;20479;-82
2022/03/12 06:03:00;;;;;;;14.70;9.37;;;0.00;99.90;;;;;;4979140;28;20933;-82
2022/03/12 06:05:26;;;;;;;17.37;9.57;;;0.00;99.90;;;;;;4980876;28;20476;-82
2022/03/12 06:07:53;;;;;;;16.93;9.17;;;1.40;99.90;;;;;;4979349;28;20416;-81
2022/03/12 06:10:25;;;;;;;12.40;7.77;;;0.50;99.90;;;;;;4979081;28;20420;-81
2022/03/12 06:12:53;;;;;;;14.07;8.00;;;0.10;99.90;;;;;;4980109;28;20412;-81
2022/03/12 06:15:20;;;;;;;16.37;8.43;;;0.20;99.90;;;;;;4978710;28;20459;-80
2022/03/12 06:17:48;;;;;;;16.27;8.23;;;0.50;99.90;;;;;;4979842;28;20419;-80
2022/03/12 06:20:14;;;;;;;14.43;8.93;;;0.20;99.90;;;;;;4980399;28;20426;-82
2022/03/12 06:22:41;;;;;;;16.93;9.20;;;0.20;99.90;;;;;;4978666;28;20419;-81
2022/03/12 06:25:08;;;;;;;13.10;7.63;;;0.30;99.90;;;;;;4978677;28;20854;-81
2022/03/12 06:27:35;;;;;;;13.80;8.67;;;0.30;99.90;;;;;;4978653;28;20482;-81
2022/03/12 06:30:02;;;;;;;12.87;8.03;;;0.30;99.90;;;;;;4980554;28;20431;-81
2022/03/12 06:32:31;;;;;;;13.20;8.23;;;0.30;99.90;;;;;;4978779;28;20890;-82
2022/03/12 06:34:57;;;;;;;16.37;8.03;;;1.50;99.90;;;;;;4978977;28;20510;-81
2022/03/12 06:37:23;;;;;;;13.73;7.83;;;0.40;99.90;;;;;;4979688;28;20423;-82
2022/03/12 06:39:48;;;;;;;11.83;7.60;;;0.40;99.90;;;;;;4979977;28;20187;-81
2022/03/12 06:42:14;;;;;;;12.93;7.90;;;0.50;99.90;;;;;;4980873;28;20172;-80
2022/03/12 06:44:42;;;;;;;15.47;7.97;;;1.30;99.90;;;;;;4979070;28;20215;-81
2022/03/12 06:47:08;;;;;;;16.27;9.03;;;1.30;99.90;;;;;;4978716;28;20226;-80
2022/03/12 06:49:35;;;;;;;15.27;7.57;;;0.60;99.90;;;;;;4980036;28;20420;-81
2022/03/12 06:52:02;;;;;;;14.47;8.77;;;0.60;99.90;;;;;;4979584;28;20176;-81
2022/03/12 06:54:27;;;;;;;12.57;7.57;;;0.70;99.90;;;;;;4978779;28;20467;-82
2022/03/12 06:56:54;;;;;;;10.47;7.00;;;1.60;99.90;;;;;;4981205;28;20480;-82
2022/03/12 06:59:20;;;;;;;13.83;8.37;;;2.40;99.90;;;;;;4981990;28;20271;-82
2022/03/12 07:01:46;;;;;;;13.00;7.93;;;0.70;99.90;;;;;;4978754;28;20471;-82
2022/03/12 07:04:11;;;;;;;13.47;7.83;;;0.90;99.90;;;;;;4978246;28;20211;-81
2022/03/12 07:06:37;;;;;;;15.50;8.60;;;0.70;99.90;;;;;;4979555;28;20176;-81
2022/03/12 07:09:04;;;;;;;13.73;8.10;;;1.60;99.90;;;;;;4979879;28;20224;-82
2022/03/12 07:11:31;;;;;;;16.50;7.80;;;0.80;99.90;;;;;;4978485;28;20184;-82
2022/03/12 07:14:00;;;;;;;13.87;7.83;;;1.40;99.90;;;;;;4978287;28;20424;-81
2022/03/12 07:16:26;;;;;;;11.90;8.00;;;0.90;99.90;;;;;;4978355;28;20196;-81
2022/03/12 07:18:52;;;;;;;14.47;8.73;;;2.20;99.90;;;;;;4978556;28;20789;-81
2022/03/12 07:21:18;;;;;;;17.53;8.87;;;1.10;99.90;;;;;;4980116;28;20188;-80
2022/03/12 07:23:43;;;;;;;14.87;8.17;;;1.20;99.90;;;;;;4984955;28;20207;-81
2022/03/12 07:26:09;;;;;;;15.17;8.90;;;1.20;99.90;;;;;;4978968;28;20737;-81
2022/03/12 07:28:35;;;;;;;17.73;9.23;;;1.40;99.90;;;;;;4978507;28;20174;-82
2022/03/12 07:31:01;;;;;;;15.13;8.87;;;1.60;99.90;;;;;;4977693;28;20462;-81
2022/03/12 07:33:28;;;;;;;14.67;7.57;;;1.80;99.90;;;;;;4977372;28;20180;-82
2022/03/12 07:35:54;;;;;;;14.17;8.13;;;1.90;99.90;;;;;;4978805;28;20271;-82
2022/03/12 07:38:20;;;;;;;14.37;8.13;;;2.20;99.90;;;;;;4977835;28;20412;-81
2022/03/12 07:40:46;;;;;;;13.87;7.07;;;2.90;99.90;;;;;;4978651;28;20183;-81
2022/03/12 07:43:12;;;;;;;14.60;8.30;;;2.90;99.90;;;;;;4976071;28;20654;-82
2022/03/12 07:45:37;;;;;;;15.90;8.30;;;3.40;99.90;;;;;;4977519;28;20205;-82
2022/03/12 07:48:05;;;;;;;13.43;7.10;;;4.00;99.90;;;;;;4977590;28;20243;-80
2022/03/12 07:50:31;;;;;;;15.90;9.37;;;4.60;99.90;;;;;;4977873;28;20196;-81
2022/03/12 07:52:57;;;;;;;15.50;8.97;;;5.00;99.90;;;;;;4976205;28;20194;-82
2022/03/12 07:55:23;;;;;;;14.07;8.70;;;5.30;98.80;;;;;;4976029;28;20543;-81
2022/03/12 07:57:49;;;;;;;19.43;9.93;;;5.70;97.90;;;;;;4975961;28;20184;-82
2022/03/12 08:00:16;;;;;;;13.43;9.07;;;6.20;96.00;;;;;;4976120;28;20232;-82
2022/03/12 08:02:48;;;;;;;17.47;9.10;;;6.60;94.30;;;;;;4977548;28;20180;-82
2022/03/12 08:05:16;;;;;;;18.33;7.97;;;7.00;93.10;;;;;;4977561;28;20266;-79
2022/03/12 08:07:42;;;;;;;13.70;8.47;;;7.20;91.60;;;;;;4977399;28;20173;-80
2022/03/12 08:10:09;;;;;;;13.77;8.90;;;7.50;90.20;;;;;;4977212;28;20527;-82
2022/03/12 08:12:35;;;;;;;13.83;8.80;;;7.60;88.30;;;;;;4977704;28;20211;-82
2022/03/12 08:15:05;;;;;;;11.73;8.53;;;7.80;86.30;;;;;;4979565;28;20202;-80
2022/03/12 08:17:32;;;;;;;15.63;9.27;;;8.60;87.00;;;;;;4974806;28;20177;-79
2022/03/12 08:19:58;;;;;;;14.93;8.37;;;9.50;80.30;;;;;;4975409;28;20206;-80
2022/03/12 08:22:25;;;;;;;11.90;8.53;;;9.70;76.30;;;;;;4975085;28;20172;-80
2022/03/12 08:24:51;;;;;;;11.77;8.10;;;9.40;75.60;;;;;;4976254;28;20205;-79
2022/03/12 08:27:17;;;;;;;13.30;9.13;;;9.60;74.20;;;;;;4977976;28;20173;-82
2022/03/12 08:29:44;;;;;;;14.60;9.10;;;9.60;73.40;;;;;;4976292;28;20243;-82
2022/03/12 08:32:11;;;;;;;11.97;8.10;;;9.10;72.80;;;;;;4978050;28;20196;-83
2022/03/12 08:34:37;;;;;;;13.53;9.23;;;9.30;73.50;;;;;;4976139;28;20283;-82
2022/03/12 08:37:04;;;;;;;11.63;8.07;;;9.70;71.70;;;;;;4976778;28;20595;-82
2022/03/12 08:39:31;;;;;;;13.20;8.77;;;9.90;70.40;;;;;;4977945;28;20180;-83
2022/03/12 08:41:56;;;;;;;13.43;8.67;;;10.10;69.40;;;;;;4976392;28;20187;-83
2022/03/12 08:44:22;;;;;;;13.30;8.93;;;10.70;69.40;;;;;;4977600;28;20287;-83
2022/03/12 08:46:48;;;;;;;12.80;8.43;;;11.00;66.30;;;;;;4981296;28;20184;-80
2022/03/12 08:49:14;;;;;;;13.93;9.27;;;11.60;63.50;;;;;;4981333;28;20195;-81
2022/03/12 08:51:41;;;;;;;12.60;8.40;;;12.20;63.10;;;;;;4981718;28;20639;-81
2022/03/12 08:54:08;;;;;;;16.07;10.20;;;12.60;60.20;;;;;;4979992;28;20646;-81
2022/03/12 08:56:35;;;;;;;13.73;8.93;;;13.00;59.10;;;;;;4981930;28;20751;-81
2022/03/12 08:59:01;;;;;;;15.67;10.07;;;13.80;59.30;;;;;;4981721;28;20230;-81
2022/03/12 09:01:27;;;;;;;13.37;10.03;;;14.20;58.50;;;;;;4980242;28;20671;-81
2022/03/12 09:03:53;;;;;;;15.77;9.60;;;14.40;56.50;;;;;;4980403;28;20206;-81
2022/03/12 09:06:19;;;;;;;13.63;9.90;;;14.40;54.70;;;;;;4981863;28;20273;-81
2022/03/12 09:08:46;;;;;;;13.20;9.80;;;14.30;54.90;;;;;;4981860;28;20253;-81
2022/03/12 09:11:15;;;;;;;16.57;10.57;;;14.50;55.90;;;;;;4981897;28;20183;-81
2022/03/12 09:13:41;;;;;;;16.50;10.73;;;14.80;56.80;;;;;;4981160;28;20227;-81
2022/03/12 09:16:06;;;;;;;14.73;10.27;;;14.70;56.70;;;;;;4980241;28;20287;-81
2022/03/12 09:18:32;;;;;;;14.33;10.90;;;14.60;56.60;;;;;;4981880;28;20204;-81
2022/03/12 09:20:58;;;;;;;15.23;9.90;;;14.00;58.20;;;;;;4981048;28;20177;-81
2022/03/12 09:23:23;;;;;;;17.30;10.23;;;13.80;58.50;;;;;;4982338;28;20203;-80
2022/03/12 09:25:50;;;;;;;14.43;10.80;;;13.80;58.90;;;;;;4984227;28;20207;-81
2022/03/12 09:28:17;;;;;;;15.17;10.30;;;13.80;59.30;;;;;;4982929;28;20176;-81
2022/03/12 09:30:44;;;;;;;15.30;11.03;;;13.90;58.80;;;;;;4980934;28;20180;-81
2022/03/12 09:33:10;;;;;;;11.53;10.00;;;14.10;58.60;;;;;;4982481;28;20573;-81
2022/03/12 09:35:36;;;;;;;16.13;10.77;;;14.00;58.50;;;;;;4986322;28;20674;-81
2022/03/12 09:38:03;;;;;;;12.57;10.17;;;14.20;58.30;;;;;;4984108;28;20541;-81
2022/03/12 09:40:30;;;;;;;12.47;10.23;;;14.50;56.70;;;;;;4983237;28;20190;-81
2022/03/12 09:42:56;;;;;;;14.27;10.50;;;14.50;57.10;;;;;;4979394;28;20184;-81
2022/03/12 09:45:23;;;;;;;16.70;11.77;;;14.40;59.20;;;;;;4980656;28;20290;-81
2022/03/12 09:47:50;;;;;;;14.67;11.37;;;14.70;59.50;;;;;;4980123;28;20177;-80
2022/03/12 09:50:16;;;;;;;13.43;11.33;;;14.20;58.30;;;;;;4983175;28;20179;-81
2022/03/12 09:52:42;;;;;;;16.93;12.37;;;14.20;62.10;;;;;;4980493;28;20179;-81
2022/03/12 09:55:08;;;;;;;16.20;12.80;;;14.20;58.00;;;;;;4980119;28;20629;-81
2022/03/12 09:57:34;;;;;;;16.93;12.20;;;14.30;60.60;;;;;;4979314;28;20188;-81
2022/03/12 10:00:04;;;;;;;15.53;12.23;;;14.50;58.80;;;;;;4978791;28;20184;-81
2022/03/12 10:02:30;;;;;;;15.17;12.70;;;14.60;61.00;;;;;;4979537;28;20177;-81
2022/03/12 10:04:55;;;;;;;13.27;11.60;;;14.70;58.40;;;;;;4979330;28;20268;-80
2022/03/12 10:07:22;;;;;;;14.87;12.70;;;14.70;59.60;;;;;;4978804;28;20185;-81
2022/03/12 10:09:48;;;;;;;14.60;12.20;;;14.70;56.80;;;;;;4979201;28;20181;-81
2022/03/12 10:12:14;;;;;;;14.03;12.33;;;14.70;58.00;;;;;;4978335;28;20183;-81
2022/03/12 10:14:40;;;;;;;14.03;12.23;;;14.70;55.90;;;;;;4979306;28;20268;-81
2022/03/12 10:17:06;;;;;;;17.07;13.03;;;14.70;56.70;;;;;;4978752;28;20225;-81
2022/03/12 10:19:38;;;;;;;15.03;12.67;;;14.70;56.70;;;;;;4978677;28;20184;-82
2022/03/12 10:22:05;;;;;;;17.77;12.70;;;14.50;56.70;;;;;;4978451;28;20180;-82
2022/03/12 10:24:31;;;;;;;17.67;12.60;;;14.80;56.30;;;;;;4979843;28;20207;-82
2022/03/12 10:26:57;;;;;;;17.80;12.43;;;14.90;55.90;;;;;;4979560;28;20755;-81
2022/03/12 10:29:22;;;;;;;15.73;12.73;;;15.20;53.50;;;;;;4979156;28;20184;-82
2022/03/12 10:31:48;;;;;;;15.37;13.10;;;15.30;55.90;;;;;;4978866;28;20545;-81
2022/03/12 10:34:15;;;;;;;14.53;12.60;;;15.40;54.50;;;;;;4978921;28;20220;-82
2022/03/12 10:36:41;;;;;;;14.27;12.63;;;15.30;52.60;;;;;;4979970;28;20541;-81
2022/03/12 10:39:07;;;;;;;15.03;12.40;;;15.20;53.00;;;;;;4980455;28;20255;-81
2022/03/12 10:41:32;;;;;;;15.10;12.50;;;15.50;53.00;;;;;;4981835;28;20199;-82
2022/03/12 10:43:58;;;;;;;14.90;12.43;;;15.40;52.40;;;;;;4980477;28;20204;-81
2022/03/12 10:46:28;;;;;;;16.10;12.63;;;15.00;53.10;;;;;;4980392;28;20177;-81
2022/03/12 10:48:56;;;;;;;20.10;13.50;;;14.80;54.20;;;;;;4979405;28;20181;-81
2022/03/12 10:51:43;;;;;;;16.33;12.67;;;15.30;51.80;;;;;;4978658;28;20180;-81
2022/03/12 10:54:15;;;;;;;17.97;13.30;;;15.60;52.80;;;;;;4993736;28;20223;-81
2022/03/12 10:56:50;;;;;;;15.43;12.73;;;15.90;53.70;;;;;;4977678;28;20185;-78
2022/03/12 10:59:25;;;;;;;16.83;13.47;;;16.10;51.90;;;;;;4976943;28;20176;-81
2022/03/12 11:01:53;;;;;;;15.40;12.70;;;15.80;51.40;;;;;;4976872;28;20176;-82
2022/03/12 11:04:27;;;;;;;16.53;12.67;;;15.50;51.90;;;;;;4975962;28;20219;-81
2022/03/12 11:06:56;;;;;;;17.73;13.53;;;15.80;51.60;;;;;;4975395;28;20187;-82
2022/03/12 11:09:52;;;;;;;17.63;12.30;;;15.70;52.30;;;;;;4976688;28;20259;-81
2022/03/12 11:12:35;;;;;;;15.97;13.30;;;16.00;52.20;;;;;;4974856;28;20184;-81
2022/03/12 11:15:08;;;;;;;18.87;13.30;;;16.10;51.00;;;;;;4979036;28;20204;-81
2022/03/12 11:17:44;;;;;;;16.30;12.90;;;15.90;50.20;;;;;;4977847;28;20177;-81
2022/03/12 11:20:23;;;;;;;16.10;13.27;;;15.80;51.50;;;;;;4978348;28;20182;-81
2022/03/12 11:23:04;;;;;;;14.00;12.27;;;16.20;50.10;;;;;;4987123;28;20174;-81
2022/03/12 11:25:30;;;;;;;16.70;13.27;;;15.90;49.30;;;;;;4978361;28;20199;-82
2022/03/12 11:28:02;;;;;;;18.93;13.83;;;15.60;51.70;;;;;;4980243;28;20186;-82
2022/03/12 11:30:36;;;;;;;18.13;13.93;;;16.10;50.20;;;;;;4978336;28;20216;-82
2022/03/12 11:33:07;;;;;;;16.43;13.53;;;16.20;48.30;;;;;;4978234;28;20555;-81
2022/03/12 11:35:40;;;;;;;15.83;13.77;;;16.00;50.40;;;;;;4979613;28;20650;-82
2022/03/12 11:38:18;;;;;;;15.80;13.20;;;16.20;50.80;;;;;;4978580;28;20339;-82
2022/03/12 11:40:50;;;;;;;16.87;13.47;;;16.70;49.00;;;;;;4979289;28;20186;-82
2022/03/12 11:43:39;;;;;;;16.97;13.63;;;17.00;48.90;;;;;;4980439;28;20232;-82
2022/03/12 11:46:07;;;;;;;19.67;14.50;;;17.20;49.00;;;;;;4978530;28;20313;-82
2022/03/12 11:48:38;;;;;;;15.87;12.93;;;17.60;49.20;;;;;;4981928;28;20190;-82
2022/03/12 11:51:20;;;;;;;17.30;12.93;;;17.40;47.20;;;;;;4980888;28;20183;-82
2022/03/12 11:53:46;;;;;;;17.70;13.70;;;17.10;49.30;;;;;;4977717;28;20183;-83
2022/03/12 11:56:16;;;;;;;17.93;12.57;;;17.10;49.20;;;;;;4977325;28;20300;-82
2022/03/12 11:58:44;;;;;;;17.93;13.43;;;17.70;48.80;;;;;;4978072;28;20608;-82
2022/03/12 12:01:11;;;;;;;18.07;13.37;;;17.90;47.80;;;;;;4979243;28;20168;-82
2022/03/12 12:03:37;;;;;;;16.17;14.17;;;17.00;47.20;;;;;;4978501;28;20186;-82
2022/03/12 12:06:02;;;;;;;17.90;14.93;;;16.80;49.20;;;;;;4979919;28;20202;-82
2022/03/12 12:08:28;;;;;;;17.77;14.47;;;16.90;47.20;;;;;;4979352;28;20188;-81
2022/03/12 12:10:54;;;;;;;16.83;14.40;;;16.90;48.60;;;;;;4980295;28;20188;-82
2022/03/12 12:13:21;;;;;;;18.30;13.93;;;17.00;49.30;;;;;;4979676;28;20213;-82
2022/03/12 12:15:47;;;;;;;17.37;14.00;;;17.10;48.30;;;;;;4978397;28;20283;-80
2022/03/12 12:18:13;;;;;;;17.40;14.23;;;16.50;48.50;;;;;;4977705;28;20181;-80
2022/03/12 12:20:41;;;;;;;18.97;14.03;;;16.80;49.60;;;;;;4979572;28;20212;-81
2022/03/12 12:23:12;;;;;;;18.00;14.67;;;17.30;50.10;;;;;;4982284;28;20181;-80
2022/03/12 12:25:39;;;;;;;17.43;13.60;;;18.20;47.40;;;;;;4983138;28;20276;-81
2022/03/12 12:28:23;;;;;;;19.17;13.60;;;18.60;47.60;;;;;;4983271;28;20181;-81
2022/03/12 12:30:50;;;;;;;16.43;14.30;;;18.90;45.40;;;;;;4981867;28;20190;-82
2022/03/12 12:33:25;;;;;;;19.67;14.37;;;18.50;46.70;;;;;;4982140;28;20195;-82
2022/03/12 12:36:05;;;;;;;16.73;13.93;;;18.80;46.20;;;;;;4981603;28;20215;-82
2022/03/12 12:38:31;;;;;;;15.40;13.43;;;19.10;45.60;;;;;;4983574;28;20574;-82
2022/03/12 12:40:59;;;;;;;16.93;13.83;;;18.10;46.30;;;;;;4982169;28;20216;-80